Time;durP1;ratioP1;P1;durP2;ratioP2;P2;SDS_P1;SDS_P2;PMS_P1;PMS_P2;Temp;Humidity;BMP_temperature;BMP_pressure;BME280_temperature;BME280_humidity;BME280_pressure;Samples;Min_cycle;Max_cycle;Signal;HPM_P1;HPM_P2
2021/09/02 00:02:20;;;;;;;14.10;12.23;;;14.10;99.90;;;;;;5101428;28;20487;-92
2021/09/02 00:04:53;;;;;;;13.93;12.43;;;14.00;99.90;;;;;;5096246;28;20463;-92
2021/09/02 00:07:22;;;;;;;11.90;10.70;;;14.00;99.90;;;;;;5096004;28;20433;-92
2021/09/02 00:09:50;;;;;;;12.80;11.60;;;14.00;99.90;;;;;;5095639;28;20951;-91
2021/09/02 00:12:17;;;;;;;17.17;11.97;;;14.00;99.90;;;;;;5095323;28;20564;-92
2021/09/02 00:17:58;;;;;;;13.53;11.67;;;14.10;99.90;;;;;;5094894;28;20493;-91
2021/09/02 00:20:25;;;;;;;13.13;11.10;;;14.10;99.90;;;;;;5097061;28;20464;-92
2021/09/02 00:22:55;;;;;;;12.60;11.30;;;14.10;99.90;;;;;;5105947;28;20444;-91
2021/09/02 00:25:23;;;;;;;13.93;11.77;;;14.00;99.90;;;;;;5119380;28;20446;-92
2021/09/02 00:27:52;;;;;;;12.20;11.10;;;14.10;99.90;;;;;;5095813;28;20442;-92
2021/09/02 00:30:23;;;;;;;13.30;12.00;;;14.10;99.90;;;;;;5095855;28;21034;-91
2021/09/02 00:32:55;;;;;;;13.43;11.10;;;14.00;99.90;;;;;;5094782;28;20872;-92
2021/09/02 00:35:24;;;;;;;11.70;10.60;;;14.00;99.90;;;;;;5111298;28;20445;-93
2021/09/02 00:37:51;;;;;;;13.60;11.40;;;14.00;99.90;;;;;;5107198;28;20934;-92
2021/09/02 00:40:18;;;;;;;11.73;10.63;;;13.90;99.90;;;;;;5115198;28;20446;-91
2021/09/02 00:42:46;;;;;;;12.53;11.30;;;13.90;99.90;;;;;;5096079;28;20457;-91
2021/09/02 00:45:13;;;;;;;13.43;12.17;;;13.80;99.90;;;;;;5095408;28;20948;-92
2021/09/02 00:47:48;;;;;;;16.70;11.47;;;13.80;99.90;;;;;;5095096;28;20469;-91
2021/09/02 00:50:15;;;;;;;14.40;12.20;;;13.80;99.90;;;;;;5095282;28;20432;-92
2021/09/02 00:52:41;;;;;;;12.43;11.23;;;13.70;99.90;;;;;;5094938;28;20562;-92
2021/09/02 00:55:09;;;;;;;14.67;11.60;;;13.70;99.90;;;;;;5095462;28;20451;-92
2021/09/02 00:57:40;;;;;;;13.47;12.10;;;13.70;99.90;;;;;;5095797;28;20516;-91
2021/09/02 01:00:10;;;;;;;13.37;11.47;;;13.60;99.90;;;;;;5095393;28;20456;-91
2021/09/02 01:02:43;;;;;;;10.93;9.93;;;13.50;99.90;;;;;;5095099;28;20475;-92
2021/09/02 01:05:10;;;;;;;13.70;12.40;;;13.40;99.90;;;;;;5095051;28;20837;-91
2021/09/02 01:07:41;;;;;;;12.67;11.47;;;13.40;99.90;;;;;;5094124;28;20906;-92
2021/09/02 01:10:11;;;;;;;12.10;10.90;;;13.40;99.90;;;;;;5094848;28;20455;-92
2021/09/02 01:12:40;;;;;;;12.93;11.70;;;13.40;99.90;;;;;;5094308;28;21018;-91
2021/09/02 01:15:09;;;;;;;14.47;12.47;;;13.30;99.90;;;;;;5105937;28;20470;-91
2021/09/02 01:17:42;;;;;;;11.87;10.67;;;13.30;99.90;;;;;;5111588;28;20544;-92
2021/09/02 01:20:12;;;;;;;12.73;11.57;;;13.30;99.90;;;;;;5110948;28;20427;-92
2021/09/02 01:22:41;;;;;;;12.50;11.23;;;13.30;99.90;;;;;;5105909;28;20492;-91
2021/09/02 01:25:12;;;;;;;13.17;10.77;;;13.20;99.90;;;;;;5096329;28;20456;-92
2021/09/02 01:27:42;;;;;;;12.73;11.60;;;13.20;99.90;;;;;;5094581;28;20451;-91
2021/09/02 01:30:12;;;;;;;15.67;12.83;;;13.20;99.90;;;;;;5112043;28;20448;-92
2021/09/02 01:32:44;;;;;;;17.17;13.17;;;13.10;99.90;;;;;;5116335;28;20516;-92
2021/09/02 01:35:15;;;;;;;13.83;12.40;;;13.00;99.90;;;;;;5095504;28;20429;-91
2021/09/02 01:37:43;;;;;;;14.03;11.97;;;13.10;99.90;;;;;;5094049;28;20539;-92
2021/09/02 01:40:16;;;;;;;16.60;13.60;;;13.00;99.90;;;;;;5094247;28;20472;-91
2021/09/02 01:42:44;;;;;;;16.10;12.00;;;13.00;99.90;;;;;;5094370;28;20468;-92
2021/09/02 01:45:14;;;;;;;14.47;13.07;;;13.00;99.90;;;;;;5094343;28;20441;-92
2021/09/02 01:47:41;;;;;;;16.50;13.00;;;13.00;99.90;;;;;;5094284;28;20441;-91
2021/09/02 01:50:11;;;;;;;14.40;12.60;;;13.00;99.90;;;;;;5094028;28;20487;-91
2021/09/02 01:52:40;;;;;;;19.80;14.70;;;13.00;99.90;;;;;;5094173;28;20482;-91
2021/09/02 01:55:09;;;;;;;13.90;12.50;;;13.00;99.90;;;;;;5094126;28;20450;-91
2021/09/02 01:57:38;;;;;;;15.67;13.50;;;13.00;99.90;;;;;;5094647;28;20813;-91
2021/09/02 02:00:08;;;;;;;13.80;12.50;;;13.00;99.90;;;;;;5094764;28;20830;-91
2021/09/02 02:02:35;;;;;;;17.37;13.20;;;12.90;99.90;;;;;;5093834;28;20467;-91
2021/09/02 02:05:03;;;;;;;14.77;13.27;;;12.90;99.90;;;;;;5094352;28;20468;-91
2021/09/02 02:07:30;;;;;;;14.63;13.07;;;12.90;99.90;;;;;;5094156;28;20459;-91
2021/09/02 02:09:57;;;;;;;16.27;14.60;;;12.80;99.90;;;;;;5093779;28;20472;-91
2021/09/02 02:12:24;;;;;;;15.13;13.60;;;12.80;99.90;;;;;;5093592;28;20567;-91
2021/09/02 02:14:52;;;;;;;17.10;14.27;;;12.70;99.90;;;;;;5093928;28;20456;-91
2021/09/02 02:17:19;;;;;;;15.37;13.67;;;12.80;99.90;;;;;;5118237;28;20431;-91
2021/09/02 02:19:46;;;;;;;16.63;14.17;;;12.70;99.90;;;;;;5117798;28;20416;-92
2021/09/02 02:22:13;;;;;;;15.90;13.30;;;12.70;99.90;;;;;;5117961;28;20440;-91
2021/09/02 02:24:40;;;;;;;15.70;12.80;;;12.70;99.90;;;;;;5116070;28;20447;-91
2021/09/02 02:27:07;;;;;;;18.07;14.40;;;12.70;99.90;;;;;;5109355;28;20521;-91
2021/09/02 02:29:34;;;;;;;15.60;13.47;;;12.70;99.90;;;;;;5097516;28;20539;-91
2021/09/02 02:32:06;;;;;;;16.60;14.60;;;12.80;99.90;;;;;;5095012;28;20559;-91
2021/09/02 02:34:35;;;;;;;24.03;15.60;;;12.70;99.90;;;;;;5095249;28;20430;-91
2021/09/02 02:37:03;;;;;;;16.57;14.90;;;12.60;99.90;;;;;;5094942;28;20458;-90
2021/09/02 02:39:30;;;;;;;15.83;14.23;;;12.60;99.90;;;;;;5106041;28;20679;-91
2021/09/02 02:41:57;;;;;;;17.40;14.90;;;12.50;99.90;;;;;;5100617;28;20549;-91
2021/09/02 02:44:24;;;;;;;14.63;12.93;;;12.60;99.90;;;;;;5095750;28;20479;-91
2021/09/02 02:46:51;;;;;;;14.80;12.80;;;12.60;99.90;;;;;;5094934;28;20450;-91
2021/09/02 02:49:19;;;;;;;15.03;13.37;;;12.50;99.90;;;;;;5093850;28;20963;-91
2021/09/02 02:51:52;;;;;;;17.33;13.37;;;12.50;99.90;;;;;;5093021;28;20534;-91
2021/09/02 02:54:19;;;;;;;16.67;13.13;;;12.50;99.90;;;;;;5093076;28;20452;-90
2021/09/02 02:56:51;;;;;;;17.10;14.80;;;12.40;99.90;;;;;;5106869;28;20415;-90
2021/09/02 02:59:18;;;;;;;15.53;13.93;;;12.40;99.90;;;;;;5108899;28;20474;-91
2021/09/02 03:01:46;;;;;;;14.53;13.13;;;12.30;99.90;;;;;;5108392;28;20448;-91
2021/09/02 03:04:13;;;;;;;13.90;11.90;;;12.30;99.90;;;;;;5113668;28;20805;-90
2021/09/02 03:06:41;;;;;;;16.60;13.43;;;12.30;99.90;;;;;;5094479;28;20427;-90
2021/09/02 03:09:11;;;;;;;12.77;11.47;;;12.20;99.90;;;;;;5093838;28;20455;-91
2021/09/02 03:11:38;;;;;;;12.70;9.90;;;12.20;99.90;;;;;;5097598;28;20503;-91
2021/09/02 03:14:10;;;;;;;10.87;9.50;;;12.20;99.90;;;;;;5097361;28;20450;-91
2021/09/02 03:16:37;;;;;;;14.70;11.67;;;12.20;99.90;;;;;;5112151;28;20503;-92
2021/09/02 03:19:10;;;;;;;10.83;9.83;;;12.20;99.90;;;;;;5115969;28;20455;-91
2021/09/02 03:21:38;;;;;;;13.80;10.83;;;12.20;99.90;;;;;;5098059;28;20967;-91
2021/09/02 03:24:10;;;;;;;12.03;10.93;;;12.30;99.90;;;;;;5097379;28;20971;-91
2021/09/02 03:26:37;;;;;;;12.80;10.13;;;12.30;99.90;;;;;;5097535;28;20451;-91
2021/09/02 03:29:07;;;;;;;11.93;9.83;;;12.30;99.90;;;;;;5097148;28;20538;-91
2021/09/02 03:31:34;;;;;;;12.30;11.10;;;12.30;99.90;;;;;;5097369;28;20842;-91
2021/09/02 03:34:01;;;;;;;12.73;10.80;;;12.30;99.90;;;;;;5097152;28;20542;-91
2021/09/02 03:36:31;;;;;;;13.13;11.60;;;12.30;99.90;;;;;;5097355;28;20453;-91
2021/09/02 03:38:58;;;;;;;14.70;11.67;;;12.30;99.90;;;;;;5097206;28;20477;-91
2021/09/02 03:41:26;;;;;;;16.60;11.60;;;12.20;99.90;;;;;;5096722;28;20453;-91
2021/09/02 03:43:54;;;;;;;12.50;11.20;;;12.20;99.90;;;;;;5099875;28;20489;-91
2021/09/02 03:46:24;;;;;;;12.37;10.87;;;12.10;99.90;;;;;;5116573;28;20471;-91
2021/09/02 03:48:51;;;;;;;12.13;10.47;;;12.20;99.90;;;;;;5116411;28;20430;-91
2021/09/02 03:51:18;;;;;;;10.60;9.50;;;12.20;99.90;;;;;;5097787;28;20828;-91
2021/09/02 03:53:45;;;;;;;13.57;11.70;;;12.10;99.90;;;;;;5096547;28;20895;-91
2021/09/02 03:56:13;;;;;;;14.77;12.47;;;12.10;99.90;;;;;;5097816;28;20462;-91
2021/09/02 03:58:41;;;;;;;14.33;12.97;;;12.10;99.90;;;;;;5096069;28;20477;-91
2021/09/02 04:01:11;;;;;;;16.17;14.40;;;12.10;99.90;;;;;;5096704;28;20459;-91
2021/09/02 04:03:38;;;;;;;18.70;13.93;;;12.10;99.90;;;;;;5110719;28;20436;-92
2021/09/02 04:06:08;;;;;;;16.40;14.60;;;12.10;99.90;;;;;;5109177;28;20451;-91
2021/09/02 04:08:37;;;;;;;19.23;15.53;;;12.10;99.90;;;;;;5115844;28;20522;-91
2021/09/02 04:11:12;;;;;;;18.10;13.90;;;12.10;99.90;;;;;;5110226;28;20431;-91
2021/09/02 04:13:41;;;;;;;14.40;13.03;;;12.10;99.90;;;;;;5111643;28;20954;-91
2021/09/02 04:16:13;;;;;;;16.03;14.33;;;12.00;99.90;;;;;;5119576;28;20462;-91
2021/09/02 04:18:40;;;;;;;17.63;14.53;;;12.00;99.90;;;;;;5119469;28;20457;-92
2021/09/02 04:21:12;;;;;;;19.97;16.77;;;12.00;99.90;;;;;;5116135;28;20514;-91
2021/09/02 04:23:39;;;;;;;18.53;16.57;;;12.00;99.90;;;;;;5099149;28;20453;-91
2021/09/02 04:26:06;;;;;;;20.30;16.57;;;12.00;99.90;;;;;;5118160;28;20449;-91
2021/09/02 04:28:36;;;;;;;21.37;16.33;;;11.90;99.90;;;;;;5120047;28;20442;-92
2021/09/02 04:31:04;;;;;;;21.27;16.33;;;11.80;99.90;;;;;;5120471;28;20431;-92
2021/09/02 04:33:34;;;;;;;23.40;16.27;;;11.70;99.90;;;;;;5119943;28;20482;-92
2021/09/02 04:36:02;;;;;;;18.43;16.37;;;11.70;99.90;;;;;;5120097;28;20443;-91
2021/09/02 04:38:31;;;;;;;20.97;18.73;;;11.70;99.90;;;;;;5119963;28;20458;-92
2021/09/02 04:40:58;;;;;;;22.57;17.87;;;11.70;99.90;;;;;;5115926;28;20461;-92
2021/09/02 04:43:25;;;;;;;24.70;17.20;;;11.70;99.90;;;;;;5082931;22;20506;-84
2021/09/02 04:45:51;;;;;;;18.83;15.30;;;11.70;99.90;;;;;;5056494;28;20444;-86
2021/09/02 04:48:21;;;;;;;22.47;16.50;;;11.80;99.90;;;;;;5056951;28;20941;-85
2021/09/02 04:50:50;;;;;;;18.20;15.80;;;11.80;99.90;;;;;;5055703;28;20463;-85
2021/09/02 04:53:17;;;;;;;19.23;14.40;;;11.70;99.90;;;;;;5073837;28;20491;-83
2021/09/02 04:55:44;;;;;;;17.23;15.20;;;11.70;99.90;;;;;;5076342;28;20810;-85
2021/09/02 04:58:14;;;;;;;21.20;16.80;;;11.70;99.90;;;;;;5075514;28;20441;-84
2021/09/02 05:00:41;;;;;;;18.53;16.60;;;11.70;99.90;;;;;;5077406;28;20441;-86
2021/09/02 05:03:09;;;;;;;17.83;15.93;;;11.70;99.90;;;;;;5076577;28;20996;-84
2021/09/02 05:05:37;;;;;;;28.03;17.60;;;11.70;99.90;;;;;;5075433;28;20979;-85
2021/09/02 05:08:05;;;;;;;20.90;15.93;;;11.70;99.90;;;;;;5076644;28;20436;-86
2021/09/02 05:10:32;;;;;;;23.60;19.30;;;11.80;99.90;;;;;;5079975;28;20440;-84
2021/09/02 05:12:59;;;;;;;20.30;17.60;;;11.80;99.90;;;;;;5080691;28;20574;-84
2021/09/02 05:15:26;;;;;;;23.63;16.50;;;11.80;99.90;;;;;;5083142;28;20456;-84
2021/09/02 05:17:52;;;;;;;20.80;17.93;;;11.80;99.90;;;;;;5086190;28;20454;-81
2021/09/02 05:20:19;;;;;;;24.63;19.37;;;11.90;99.90;;;;;;5095455;28;20447;-85
2021/09/02 05:22:47;;;;;;;22.83;18.67;;;11.90;99.90;;;;;;5084678;28;20468;-85
2021/09/02 05:25:14;;;;;;;21.40;17.70;;;11.90;99.90;;;;;;5083845;28;20448;-84
2021/09/02 05:27:41;;;;;;;24.97;19.83;;;11.90;99.90;;;;;;5083190;28;21064;-84
2021/09/02 05:30:11;;;;;;;20.93;18.17;;;11.90;99.90;;;;;;5082719;28;20455;-84
2021/09/02 05:32:38;;;;;;;26.57;20.37;;;12.00;99.90;;;;;;5079819;28;20486;-84
2021/09/02 05:35:06;;;;;;;27.53;19.90;;;12.00;99.90;;;;;;5080762;28;20448;-85
2021/09/02 05:37:33;;;;;;;34.73;20.77;;;12.00;99.90;;;;;;5085203;28;20462;-83
2021/09/02 05:40:01;;;;;;;26.80;20.63;;;12.20;99.90;;;;;;5085479;28;20436;-84
2021/09/02 05:42:27;;;;;;;25.97;21.03;;;12.20;99.90;;;;;;5086059;28;20476;-84
2021/09/02 05:44:54;;;;;;;21.77;18.63;;;12.30;99.90;;;;;;5080936;28;20497;-83
2021/09/02 05:47:20;;;;;;;22.57;17.50;;;12.30;99.90;;;;;;5079830;28;20469;-85
2021/09/02 05:49:47;;;;;;;23.60;17.50;;;12.30;99.90;;;;;;5082300;28;20651;-85
2021/09/02 05:52:14;;;;;;;18.70;16.60;;;12.40;99.90;;;;;;5089384;28;20468;-84
2021/09/02 05:54:40;;;;;;;20.47;17.20;;;12.40;99.90;;;;;;5081082;28;20481;-84
2021/09/02 05:57:09;;;;;;;21.40;18.50;;;12.40;99.90;;;;;;5087365;28;20451;-84
2021/09/02 05:59:35;;;;;;;29.53;19.70;;;12.40;99.90;;;;;;5087339;28;20451;-83
2021/09/02 06:02:02;;;;;;;26.13;20.27;;;12.50;99.90;;;;;;5095441;28;20466;-81
2021/09/02 06:04:29;;;;;;;27.13;20.77;;;12.50;99.90;;;;;;5088842;28;20448;-84
2021/09/02 06:06:56;;;;;;;23.50;17.77;;;12.50;99.90;;;;;;5092372;28;20437;-85
2021/09/02 06:09:22;;;;;;;22.47;18.80;;;12.50;99.90;;;;;;5090352;28;20455;-83
2021/09/02 06:11:49;;;;;;;30.10;20.30;;;12.60;99.90;;;;;;5087851;28;20465;-85
2021/09/02 06:14:17;;;;;;;26.60;20.30;;;12.70;99.90;;;;;;5084147;28;20479;-86
2021/09/02 06:16:44;;;;;;;24.80;19.00;;;12.80;99.90;;;;;;5082846;28;20443;-85
2021/09/02 06:19:10;;;;;;;26.20;20.07;;;12.90;99.90;;;;;;5086144;28;20453;-85
2021/09/02 06:21:37;;;;;;;25.20;19.00;;;12.90;99.90;;;;;;5090241;28;20640;-82
2021/09/02 06:24:04;;;;;;;23.40;18.57;;;13.00;99.90;;;;;;5091697;28;20447;-85
2021/09/02 06:26:31;;;;;;;24.97;19.80;;;13.10;99.90;;;;;;5080972;28;20453;-85
2021/09/02 06:28:58;;;;;;;28.03;22.50;;;13.30;99.90;;;;;;5079581;28;20797;-86
2021/09/02 06:31:26;;;;;;;33.43;23.17;;;13.50;99.90;;;;;;5077973;28;20445;-84
2021/09/02 06:33:53;;;;;;;22.67;19.93;;;13.70;99.90;;;;;;5081107;28;20486;-85
2021/09/02 06:36:20;;;;;;;32.17;21.90;;;13.90;99.90;;;;;;5079165;28;20469;-85
2021/09/02 06:38:47;;;;;;;30.77;22.20;;;14.00;99.90;;;;;;5077585;28;20450;-84
2021/09/02 06:41:14;;;;;;;25.37;20.13;;;14.20;99.90;;;;;;5079137;28;20451;-87
2021/09/02 06:43:43;;;;;;;23.40;18.93;;;14.40;99.90;;;;;;5081988;28;20497;-86
2021/09/02 06:46:09;;;;;;;23.10;18.30;;;14.50;99.90;;;;;;5088523;28;20443;-86
2021/09/02 06:48:37;;;;;;;22.60;15.77;;;14.70;99.90;;;;;;5083558;28;20451;-84
2021/09/02 06:51:04;;;;;;;19.13;15.50;;;14.90;99.90;;;;;;5083890;28;20443;-85
2021/09/02 06:53:31;;;;;;;16.10;14.60;;;15.10;99.90;;;;;;5083679;28;20493;-83
2021/09/02 06:55:58;;;;;;;20.00;15.63;;;15.40;99.90;;;;;;5083860;28;20435;-86
2021/09/02 06:58:24;;;;;;;20.27;15.60;;;15.80;99.90;;;;;;5083281;28;20519;-87
2021/09/02 07:00:54;;;;;;;18.17;13.97;;;16.40;99.90;;;;;;5083214;28;20436;-85
2021/09/02 07:03:21;;;;;;;15.73;13.20;;;16.90;99.90;;;;;;5090644;28;20471;-85
2021/09/02 07:05:50;;;;;;;15.87;14.00;;;17.40;99.90;;;;;;5096131;28;20459;-85
2021/09/02 07:08:16;;;;;;;17.90;14.73;;;18.30;99.90;;;;;;5095135;28;20525;-85
2021/09/02 07:10:43;;;;;;;17.70;15.83;;;19.50;99.90;;;;;;5090098;28;20436;-86
2021/09/02 07:13:11;;;;;;;18.47;15.60;;;20.40;99.90;;;;;;5090940;28;20471;-86
2021/09/02 07:15:38;;;;;;;17.17;15.47;;;21.20;98.90;;;;;;5091735;28;20427;-85
2021/09/02 07:18:05;;;;;;;16.73;15.03;;;21.90;97.10;;;;;;5091023;28;20490;-85
2021/09/02 07:20:32;;;;;;;16.60;15.10;;;22.20;94.50;;;;;;5086963;28;20518;-85
2021/09/02 07:23:01;;;;;;;18.00;15.97;;;22.30;94.50;;;;;;5085015;28;20470;-85
2021/09/02 07:25:32;;;;;;;17.97;16.10;;;23.20;92.80;;;;;;5087121;28;20944;-90
2021/09/02 07:27:59;;;;;;;19.73;17.83;;;22.80;91.80;;;;;;5085973;28;20455;-85
2021/09/02 07:30:26;;;;;;;18.50;16.60;;;21.90;93.00;;;;;;5087689;28;20452;-86
2021/09/02 07:32:53;;;;;;;16.53;14.83;;;22.20;93.80;;;;;;5085889;28;20508;-86
2021/09/02 07:35:20;;;;;;;16.63;15.00;;;23.80;92.00;;;;;;5085072;28;20486;-86
2021/09/02 07:37:46;;;;;;;17.33;15.60;;;24.40;89.70;;;;;;5086273;28;20841;-85
2021/09/02 07:40:15;;;;;;;15.93;14.43;;;23.80;88.60;;;;;;5085123;28;20447;-86
2021/09/02 07:42:42;;;;;;;18.00;16.23;;;22.70;90.30;;;;;;5082929;28;20496;-85
2021/09/02 07:45:09;;;;;;;17.90;16.30;;;22.10;91.50;;;;;;5082291;28;20956;-86
2021/09/02 07:47:37;;;;;;;17.53;15.80;;;21.80;92.40;;;;;;5086269;28;20461;-86
2021/09/02 07:50:06;;;;;;;17.40;15.50;;;22.10;92.50;;;;;;5087275;28;20502;-87
2021/09/02 07:52:34;;;;;;;17.53;15.87;;;22.40;92.00;;;;;;5087419;28;20461;-87
2021/09/02 07:55:01;;;;;;;24.43;22.53;;;23.30;91.20;;;;;;5084475;28;20513;-86
2021/09/02 07:57:29;;;;;;;20.37;18.60;;;23.50;90.20;;;;;;5084435;28;20443;-86
2021/09/02 07:59:56;;;;;;;17.93;16.00;;;23.00;90.10;;;;;;5087377;28;20515;-87
2021/09/02 08:02:23;;;;;;;17.80;16.13;;;22.20;91.00;;;;;;5085011;28;20475;-86
2021/09/02 08:04:50;;;;;;;17.67;15.70;;;21.50;92.50;;;;;;5084710;28;20439;-86
2021/09/02 08:07:17;;;;;;;16.73;15.23;;;20.90;93.60;;;;;;5088775;28;20451;-87
2021/09/02 08:09:44;;;;;;;18.00;15.90;;;20.70;94.20;;;;;;5083047;28;20457;-86
2021/09/02 08:12:11;;;;;;;19.40;14.63;;;20.60;94.70;;;;;;5088701;28;20468;-86
2021/09/02 08:14:40;;;;;;;16.33;14.73;;;20.80;94.70;;;;;;5091761;28;20504;-86
2021/09/02 08:17:06;;;;;;;16.10;14.20;;;21.40;93.90;;;;;;5098169;28;20430;-87
2021/09/02 08:19:33;;;;;;;15.17;13.63;;;21.90;93.10;;;;;;5092794;28;20446;-86
2021/09/02 08:22:00;;;;;;;16.50;14.77;;;21.80;93.00;;;;;;5097212;28;20476;-86
2021/09/02 08:24:26;;;;;;;17.67;14.47;;;21.40;93.20;;;;;;5096415;28;20437;-87
2021/09/02 08:26:53;;;;;;;16.77;14.97;;;21.10;93.80;;;;;;5093835;28;20441;-87
2021/09/02 08:29:20;;;;;;;14.63;13.13;;;20.90;94.40;;;;;;5084068;28;20481;-87
2021/09/02 08:31:48;;;;;;;15.30;13.77;;;20.80;94.80;;;;;;5084389;28;20441;-86
2021/09/02 08:34:15;;;;;;;14.20;12.87;;;20.70;95.10;;;;;;5081983;28;20472;-86
2021/09/02 08:36:42;;;;;;;15.30;13.40;;;20.70;95.10;;;;;;5079303;28;20457;-86
2021/09/02 08:39:08;;;;;;;13.40;12.20;;;21.30;94.20;;;;;;5075350;28;20453;-86
2021/09/02 08:41:35;;;;;;;12.40;11.33;;;23.60;92.60;;;;;;5075540;28;20986;-86
2021/09/02 08:44:02;;;;;;;11.30;10.20;;;26.20;87.00;;;;;;5076284;28;20439;-87
2021/09/02 08:46:30;;;;;;;11.47;10.30;;;28.20;76.70;;;;;;5074847;28;20998;-87
2021/09/02 08:49:00;;;;;;;11.13;10.13;;;30.20;69.10;;;;;;5074072;28;20455;-86
2021/09/02 08:51:27;;;;;;;10.57;9.67;;;31.20;63.30;;;;;;5078215;28;20451;-87
2021/09/02 08:53:55;;;;;;;10.77;9.87;;;32.70;59.00;;;;;;5096156;28;20474;-85
2021/09/02 08:56:22;;;;;;;9.77;7.63;;;33.70;55.80;;;;;;5090964;28;20444;-86
2021/09/02 08:58:49;;;;;;;8.00;7.20;;;33.60;53.30;;;;;;5077199;28;20447;-87
2021/09/02 09:01:16;;;;;;;8.07;7.33;;;31.80;55.80;;;;;;5077355;28;20447;-86
2021/09/02 09:03:48;;;;;;;7.27;6.70;;;32.60;55.30;;;;;;5075677;28;20513;-86
2021/09/02 09:06:24;;;;;;;7.40;6.80;;;34.40;52.40;;;;;;5077497;28;20538;-86
2021/09/02 09:08:51;;;;;;;7.80;7.23;;;35.30;50.20;;;;;;5074184;28;20504;-85
2021/09/02 09:11:20;;;;;;;8.37;7.77;;;35.50;48.60;;;;;;5076429;28;20447;-86
2021/09/02 09:13:49;;;;;;;7.90;7.20;;;36.20;46.80;;;;;;5074928;28;20483;-85
2021/09/02 09:16:16;;;;;;;7.90;7.20;;;35.60;47.30;;;;;;5076997;28;20837;-85
2021/09/02 09:18:45;;;;;;;7.63;7.03;;;35.80;46.40;;;;;;5073359;28;20454;-85
2021/09/02 09:21:14;;;;;;;7.83;7.03;;;35.20;46.90;;;;;;5073106;28;20447;-85
2021/09/02 09:23:53;;;;;;;7.17;6.67;;;35.00;47.70;;;;;;5073851;28;20517;-85
2021/09/02 09:26:20;;;;;;;7.90;7.00;;;34.40;47.00;;;;;;5075604;28;20443;-85
2021/09/02 09:28:47;;;;;;;7.33;6.70;;;33.60;48.10;;;;;;5075833;28;20515;-85
2021/09/02 09:31:31;;;;;;;6.60;6.00;;;33.90;48.90;;;;;;5075017;28;20936;-85
2021/09/02 09:33:59;;;;;;;7.40;6.80;;;35.20;46.10;;;;;;5073778;28;20516;-85
2021/09/02 09:36:28;;;;;;;7.83;7.17;;;35.00;46.80;;;;;;5073526;28;20450;-86
2021/09/02 09:39:06;;;;;;;7.33;6.73;;;36.20;45.40;;;;;;5081527;28;20447;-86
2021/09/02 09:41:34;;;;;;;6.90;6.27;;;36.50;43.50;;;;;;5087859;28;20427;-86
2021/09/02 09:44:18;;;;;;;7.20;6.70;;;35.90;44.40;;;;;;5078158;28;20443;-86
2021/09/02 09:47:07;;;;;;;7.30;6.60;;;35.90;44.80;;;;;;5075279;28;20479;-87
2021/09/02 09:49:45;;;;;;;7.20;6.60;;;37.60;42.80;;;;;;5078828;28;20493;-87
2021/09/02 09:52:25;;;;;;;7.13;6.53;;;37.40;41.60;;;;;;5075161;28;20470;-85
2021/09/02 09:54:55;;;;;;;6.90;6.10;;;36.80;42.00;;;;;;5076371;28;20506;-86
2021/09/02 09:57:22;;;;;;;7.27;6.57;;;35.60;43.20;;;;;;5074176;28;20873;-87
2021/09/02 09:59:52;;;;;;;7.43;6.83;;;34.20;45.20;;;;;;5075809;28;20524;-86
2021/09/02 10:02:20;;;;;;;7.80;7.10;;;33.60;46.60;;;;;;5075169;28;20470;-87
2021/09/02 10:04:55;;;;;;;7.37;6.87;;;32.80;47.50;;;;;;5077164;28;20507;-87
2021/09/02 10:07:23;;;;;;;7.30;6.60;;;33.20;47.60;;;;;;5077500;28;20447;-86
2021/09/02 10:09:51;;;;;;;7.43;6.80;;;34.30;46.00;;;;;;5074125;28;20559;-86
2021/09/02 10:12:21;;;;;;;7.60;6.97;;;33.00;47.20;;;;;;5074646;28;20475;-86
2021/09/02 10:14:49;;;;;;;7.20;6.50;;;31.70;50.00;;;;;;5073153;28;20471;-86
2021/09/02 10:17:16;;;;;;;7.80;7.17;;;32.00;50.20;;;;;;5075795;28;20459;-87
2021/09/02 10:19:44;;;;;;;7.57;6.97;;;32.20;49.00;;;;;;5076518;28;20956;-86
2021/09/02 10:22:12;;;;;;;6.90;6.30;;;32.50;49.40;;;;;;5083432;28;20467;-87
2021/09/02 10:24:41;;;;;;;7.77;6.97;;;33.60;47.40;;;;;;5084817;28;20538;-85
2021/09/02 10:27:35;;;;;;;6.47;5.97;;;34.40;46.10;;;;;;5095210;28;20462;-85
2021/09/02 10:30:23;;;;;;;8.27;7.20;;;35.80;44.00;;;;;;5077324;28;20455;-86
2021/09/02 10:32:51;;;;;;;7.93;7.33;;;35.30;44.90;;;;;;5096513;28;20451;-86
2021/09/02 10:35:37;;;;;;;7.07;6.47;;;36.20;43.60;;;;;;5091647;28;20487;-86
2021/09/02 10:38:07;;;;;;;6.80;6.30;;;37.60;41.50;;;;;;5089001;28;20458;-86
2021/09/02 10:40:45;;;;;;;7.73;6.93;;;36.40;41.80;;;;;;5087311;28;20444;-86
2021/09/02 10:43:13;;;;;;;7.53;6.83;;;35.40;43.60;;;;;;5090198;22;20498;-90
2021/09/02 10:45:42;;;;;;;8.07;7.47;;;35.20;44.00;;;;;;5055968;28;20451;-90
2021/09/02 10:48:15;;;;;;;7.57;6.97;;;34.80;43.50;;;;;;5056610;28;20475;-90
2021/09/02 10:50:45;;;;;;;7.60;7.00;;;35.90;43.10;;;;;;5056220;28;20444;-91
2021/09/02 10:53:13;;;;;;;7.70;6.87;;;35.50;43.10;;;;;;5065607;28;20493;-90
2021/09/02 10:55:48;;;;;;;12.77;7.43;;;37.20;42.10;;;;;;5075621;28;20860;-90
2021/09/02 10:58:47;;;;;;;6.43;5.93;;;37.10;41.00;;;;;;5074325;28;20940;-90
2021/09/02 11:01:27;;;;;;;7.80;7.10;;;37.20;41.70;;;;;;5084695;28;20471;-89
2021/09/02 11:03:56;;;;;;;7.87;7.27;;;37.10;40.40;;;;;;5094309;28;20447;-90
2021/09/02 11:06:23;;;;;;;7.57;6.97;;;37.00;40.40;;;;;;5079128;28;20480;-90
2021/09/02 11:08:50;;;;;;;7.00;6.50;;;37.70;40.40;;;;;;5076694;28;20941;-90
2021/09/02 11:11:19;;;;;;;7.47;6.87;;;37.20;40.60;;;;;;5074080;28;20448;-91
2021/09/02 11:13:49;;;;;;;7.57;7.00;;;37.00;40.70;;;;;;5074458;28;20471;-89
2021/09/02 11:16:18;;;;;;;6.77;6.27;;;37.20;40.90;;;;;;5089184;28;20431;-89
2021/09/02 11:18:46;;;;;;;7.23;6.73;;;36.80;40.00;;;;;;5076272;28;20439;-89
2021/09/02 11:21:15;;;;;;;6.60;6.10;;;36.30;39.60;;;;;;5075225;28;20443;-90
2021/09/02 11:23:45;;;;;;;5.80;5.20;;;36.40;38.80;;;;;;5082334;28;20451;-89
2021/09/02 11:26:12;;;;;;;6.27;5.77;;;36.60;38.90;;;;;;5093871;28;20479;-90
2021/09/02 11:28:50;;;;;;;6.90;6.30;;;35.60;38.70;;;;;;5090829;28;20458;-89
2021/09/02 11:31:17;;;;;;;6.00;5.60;;;35.30;39.70;;;;;;5076410;28;20797;-90
2021/09/02 11:33:48;;;;;;;5.53;5.13;;;35.00;39.50;;;;;;5079394;28;20991;-89
2021/09/02 11:36:15;;;;;;;6.70;6.10;;;35.60;40.00;;;;;;5078028;28;20629;-90
2021/09/02 11:38:42;;;;;;;5.00;4.50;;;35.40;39.60;;;;;;5076712;28;20458;-89
2021/09/02 11:41:18;;;;;;;5.40;5.00;;;35.80;38.90;;;;;;5078491;28;20951;-89
2021/09/02 11:43:45;;;;;;;5.40;4.90;;;36.30;39.80;;;;;;5078904;28;20482;-90
2021/09/02 11:46:13;;;;;;;5.80;5.40;;;35.40;39.10;;;;;;5078524;28;20501;-89
2021/09/02 11:48:51;;;;;;;7.23;5.37;;;35.20;39.20;;;;;;5080353;28;20447;-89
2021/09/02 11:51:22;;;;;;;5.30;4.90;;;35.30;39.20;;;;;;5081024;28;20447;-89
2021/09/02 11:53:49;;;;;;;5.87;5.27;;;35.60;38.50;;;;;;5093412;28;20993;-89
2021/09/02 11:56:18;;;;;;;6.40;5.90;;;35.60;39.30;;;;;;5082082;28;20441;-89
2021/09/02 11:58:46;;;;;;;5.87;5.30;;;35.70;38.90;;;;;;5078213;28;20443;-89
2021/09/02 12:01:15;;;;;;;5.30;4.80;;;35.90;37.30;;;;;;5082860;28;20447;-88
2021/09/02 12:03:49;;;;;;;5.93;5.33;;;36.50;37.10;;;;;;5083506;28;20469;-89
2021/09/02 12:06:17;;;;;;;6.23;5.73;;;37.00;36.80;;;;;;5076841;28;20474;-90
2021/09/02 12:08:44;;;;;;;6.37;5.73;;;36.70;37.40;;;;;;5077506;28;20509;-90
2021/09/02 12:11:11;;;;;;;8.87;5.80;;;36.40;38.50;;;;;;5077182;28;20519;-90
2021/09/02 12:13:39;;;;;;;6.23;5.73;;;36.50;38.80;;;;;;5077817;28;20536;-90
2021/09/02 12:16:07;;;;;;;6.53;6.03;;;36.90;37.10;;;;;;5077957;28;20447;-90
2021/09/02 12:18:37;;;;;;;5.60;5.10;;;36.30;38.00;;;;;;5078227;28;20944;-90
2021/09/02 12:21:12;;;;;;;5.80;5.30;;;36.30;38.80;;;;;;5078026;28;20491;-89
2021/09/02 12:23:44;;;;;;;6.10;5.60;;;36.50;39.00;;;;;;5078274;28;20463;-90
2021/09/02 12:26:11;;;;;;;6.23;5.73;;;36.50;39.00;;;;;;5080935;28;20483;-89
2021/09/02 12:28:40;;;;;;;6.47;5.20;;;37.40;37.90;;;;;;5098592;28;20482;-89
2021/09/02 12:31:26;;;;;;;6.27;5.70;;;38.30;38.20;;;;;;5098500;28;20443;-88
2021/09/02 12:34:07;;;;;;;6.20;5.70;;;37.60;36.30;;;;;;5095721;28;20550;-89
2021/09/02 12:36:35;;;;;;;6.30;5.80;;;36.30;37.80;;;;;;5098866;28;20462;-89
2021/09/02 12:39:22;;;;;;;6.03;5.53;;;36.30;39.30;;;;;;5098331;28;20431;-88
2021/09/02 12:41:51;;;;;;;5.50;5.10;;;37.20;38.20;;;;;;5085082;28;20454;-89
2021/09/02 12:44:24;;;;;;;6.53;5.40;;;37.50;37.10;;;;;;5076814;28;20483;-90
2021/09/02 12:47:11;;;;;;;5.70;5.20;;;37.90;36.70;;;;;;5078177;28;20482;-88